Time;durP1;ratioP1;P1;durP2;ratioP2;P2;SDS_P1;SDS_P2;PMS_P1;PMS_P2;Temp;Humidity;BMP_temperature;BMP_pressure;BME280_temperature;BME280_humidity;BME280_pressure;Samples;Min_cycle;Max_cycle;Signal;HPM_P1;HPM_P2
2021/09/02 00:01:26;;;;;;;;;;;;;;;15.80;74.24;102933.16;5041457;28;19921;-68
2021/09/02 00:03:51;;;;;;;;;;;;;;;15.95;73.63;102933.63;5041808;28;19932;-68
2021/09/02 00:06:16;;;;;;;;;;;;;;;15.89;73.89;102935.53;5041853;28;19916;-68
2021/09/02 00:08:42;;;;;;;;;;;;;;;15.94;73.28;102927.47;5042175;28;19920;-68
2021/09/02 00:11:07;;;;;;;;;;;;;;;16.17;67.50;102932.06;5042056;28;20223;-68
2021/09/02 00:13:32;;;;;;;;;;;;;;;16.15;65.56;102923.28;5023879;28;20209;-68
2021/09/02 00:15:57;;;;;;;;;;;;;;;16.14;64.48;102921.56;5024758;28;20104;-68
2021/09/02 00:18:23;;;;;;;;;;;;;;;16.37;65.55;102922.63;5040429;28;19916;-68
2021/09/02 00:20:48;;;;;;;;;;;;;;;16.53;65.31;102925.63;5042040;28;19913;-68
2021/09/02 00:23:13;;;;;;;;;;;;;;;16.93;67.43;102929.63;5040978;28;19932;-68
2021/09/02 00:25:38;;;;;;;;;;;;;;;16.15;67.92;102920.66;5042276;28;19909;-68
2021/09/02 00:28:04;;;;;;;;;;;;;;;16.05;67.04;102925.38;5041685;28;19913;-68
2021/09/02 00:30:29;;;;;;;;;;;;;;;16.11;66.42;102921.66;5041041;28;20235;-68
2021/09/02 00:32:54;;;;;;;;;;;;;;;16.01;67.17;102914.91;5041629;28;19913;-68
2021/09/02 00:35:20;;;;;;;;;;;;;;;16.01;67.07;102918.44;5040836;28;19913;-68
2021/09/02 00:37:45;;;;;;;;;;;;;;;16.01;67.38;102913.16;5041454;28;19972;-68
2021/09/02 00:40:10;;;;;;;;;;;;;;;16.06;67.31;102915.66;5041783;28;19913;-68
2021/09/02 00:42:35;;;;;;;;;;;;;;;16.06;67.58;102913.91;5040844;28;19921;-68
2021/09/02 00:45:01;;;;;;;;;;;;;;;15.97;68.11;102913.28;5041965;28;19917;-68
2021/09/02 00:47:26;;;;;;;;;;;;;;;15.93;70.13;102905.47;5041358;28;19939;-68
2021/09/02 00:49:52;;;;;;;;;;;;;;;15.99;69.00;102909.72;5041365;28;19917;-68
2021/09/02 00:52:19;;;;;;;;;;;;;;;17.09;69.68;102912.31;5041742;28;19917;-68
2021/09/02 00:54:46;;;;;;;;;;;;;;;17.12;64.88;102903.38;5041611;28;19972;-69
2021/09/02 00:57:11;;;;;;;;;;;;;;;17.96;66.43;102899.41;5041747;28;20184;-68
2021/09/02 00:59:37;;;;;;;;;;;;;;;18.26;63.72;102889.34;5041305;28;19956;-68
2021/09/02 01:05:03;;;;;;;;;;;;;;;19.33;60.65;102886.56;5044350;28;19909;-68
2021/09/02 01:07:29;;;;;;;;;;;;;;;18.13;61.39;102885.47;5046029;28;19934;-68
2021/09/02 01:09:54;;;;;;;;;;;;;;;18.69;62.21;102889.38;5045477;28;19913;-68
2021/09/02 01:12:29;;;;;;;;;;;;;;;18.11;65.17;102897.94;5043562;28;19921;-68
2021/09/02 01:14:54;;;;;;;;;;;;;;;17.16;65.23;102899.72;5045613;28;19909;-68
2021/09/02 01:17:20;;;;;;;;;;;;;;;17.91;64.90;102888.13;5044802;28;20113;-68
2021/09/02 01:19:46;;;;;;;;;;;;;;;17.19;65.60;102891.63;5044107;28;19909;-68
2021/09/02 01:22:11;;;;;;;;;;;;;;;18.12;66.18;102889.03;5044867;28;19956;-68
2021/09/02 01:24:36;;;;;;;;;;;;;;;19.30;61.97;102884.06;5044239;28;20000;-68
2021/09/02 01:27:01;;;;;;;;;;;;;;;19.43;60.96;102888.78;5045368;28;19992;-68
2021/09/02 01:29:27;;;;;;;;;;;;;;;17.21;63.90;102885.41;5044885;28;20255;-68
2021/09/02 01:31:53;;;;;;;;;;;;;;;16.64;67.44;102886.47;5044713;28;19941;-68
2021/09/02 01:34:18;;;;;;;;;;;;;;;16.48;67.65;102887.00;5044540;28;19917;-68
2021/09/02 01:36:43;;;;;;;;;;;;;;;16.68;69.73;102883.69;5045060;28;19959;-68
2021/09/02 01:39:08;;;;;;;;;;;;;;;16.34;67.27;102888.38;5044846;28;19912;-68
2021/09/02 01:41:34;;;;;;;;;;;;;;;16.35;67.25;102893.56;5044316;28;19944;-68
2021/09/02 01:43:59;;;;;;;;;;;;;;;16.84;66.77;102893.75;5045045;28;19916;-68
2021/09/02 01:46:24;;;;;;;;;;;;;;;16.54;66.69;102885.06;5044295;28;20162;-68
2021/09/02 01:48:53;;;;;;;;;;;;;;;16.52;67.32;102887.75;5044440;28;19913;-68
2021/09/02 01:51:18;;;;;;;;;;;;;;;16.53;66.74;102891.25;5022776;28;19988;-68
2021/09/02 01:53:43;;;;;;;;;;;;;;;16.44;66.50;102895.91;5025202;28;19909;-68
2021/09/02 01:56:09;;;;;;;;;;;;;;;16.88;65.24;102893.63;5020895;28;19909;-68
2021/09/02 01:58:34;;;;;;;;;;;;;;;16.39;66.22;102900.53;5044021;28;19940;-68
2021/09/02 02:00:59;;;;;;;;;;;;;;;16.23;67.03;102900.13;5042808;28;19956;-68
2021/09/02 02:03:24;;;;;;;;;;;;;;;15.92;68.79;102890.53;5043158;28;19909;-68
2021/09/02 02:05:50;;;;;;;;;;;;;;;15.99;68.18;102888.56;5044068;28;19984;-68
2021/09/02 02:08:15;;;;;;;;;;;;;;;15.90;68.13;102891.50;5044129;28;19980;-68
2021/09/02 02:10:41;;;;;;;;;;;;;;;16.04;67.87;102886.63;5043025;28;19913;-68
2021/09/02 02:13:06;;;;;;;;;;;;;;;15.78;68.44;102884.78;5043876;28;19913;-68
2021/09/02 02:15:31;;;;;;;;;;;;;;;15.84;67.91;102873.16;5043602;28;19988;-68
2021/09/02 02:17:56;;;;;;;;;;;;;;;15.94;68.27;102877.28;5044123;28;19920;-68
2021/09/02 02:20:22;;;;;;;;;;;;;;;15.97;67.75;102878.94;5044106;28;19983;-71
2021/09/02 02:22:47;;;;;;;;;;;;;;;15.79;69.12;102883.91;5044017;28;19913;-71
2021/09/02 02:25:13;;;;;;;;;;;;;;;15.76;69.93;102883.13;5043532;28;20100;-71
2021/09/02 02:27:38;;;;;;;;;;;;;;;15.77;69.50;102885.72;5043531;28;19967;-69
2021/09/02 02:30:04;;;;;;;;;;;;;;;15.71;69.61;102884.06;5042993;28;19916;-69
2021/09/02 02:32:29;;;;;;;;;;;;;;;15.80;69.61;102890.03;5043079;28;19917;-69
2021/09/02 02:34:54;;;;;;;;;;;;;;;15.72;69.69;102879.66;5043840;28;19913;-69
2021/09/02 02:37:20;;;;;;;;;;;;;;;15.70;69.91;102877.06;5042985;28;19921;-69
2021/09/02 02:39:45;;;;;;;;;;;;;;;15.70;70.60;102885.00;5043968;28;20116;-69
2021/09/02 02:42:10;;;;;;;;;;;;;;;15.62;71.36;102875.56;5043619;28;19963;-69
2021/09/02 02:44:35;;;;;;;;;;;;;;;15.72;72.76;102877.88;5042804;28;19966;-69
2021/09/02 02:47:02;;;;;;;;;;;;;;;15.69;72.06;102882.41;5043461;28;19921;-69
2021/09/02 02:49:27;;;;;;;;;;;;;;;15.59;71.31;102878.28;5042024;28;19920;-69
2021/09/02 02:51:53;;;;;;;;;;;;;;;15.50;73.96;102875.00;5043680;28;19916;-69
2021/09/02 02:54:18;;;;;;;;;;;;;;;15.51;74.63;102879.38;5043201;28;19916;-69
2021/09/02 02:56:43;;;;;;;;;;;;;;;15.57;73.74;102877.47;5043534;28;19964;-69
2021/09/02 02:59:09;;;;;;;;;;;;;;;15.58;75.14;102876.56;5043259;28;19956;-69
2021/09/02 03:01:34;;;;;;;;;;;;;;;15.14;77.05;102879.56;5042846;28;19921;-69
2021/09/02 03:03:59;;;;;;;;;;;;;;;15.49;74.14;102877.69;5043424;28;19920;-69
2021/09/02 03:06:25;;;;;;;;;;;;;;;15.24;74.44;102881.03;5042272;28;19913;-69
2021/09/02 03:08:50;;;;;;;;;;;;;;;15.33;71.97;102878.16;5043134;28;19913;-69
2021/09/02 03:11:15;;;;;;;;;;;;;;;15.36;71.91;102877.19;5024660;28;19917;-69
2021/09/02 03:13:41;;;;;;;;;;;;;;;15.39;71.41;102870.94;5022358;28;19921;-69
2021/09/02 03:16:06;;;;;;;;;;;;;;;15.39;73.87;102863.03;5030332;28;19913;-69
2021/09/02 03:18:31;;;;;;;;;;;;;;;15.26;74.05;102866.03;5042580;28;19913;-69
2021/09/02 03:20:56;;;;;;;;;;;;;;;15.24;72.90;102872.25;5042909;28;19913;-69
2021/09/02 03:23:22;;;;;;;;;;;;;;;15.37;73.37;102868.34;5042539;28;19913;-69
2021/09/02 03:25:47;;;;;;;;;;;;;;;15.43;76.44;102868.19;5042062;28;19921;-69
2021/09/02 03:28:12;;;;;;;;;;;;;;;15.10;75.62;102870.88;5042452;28;19941;-69
2021/09/02 03:30:37;;;;;;;;;;;;;;;15.14;75.32;102866.38;5042530;28;19925;-69
2021/09/02 03:33:03;;;;;;;;;;;;;;;15.24;76.83;102870.47;5042855;28;19913;-68
2021/09/02 03:35:28;;;;;;;;;;;;;;;15.28;74.38;102868.59;5042067;28;19920;-68
2021/09/02 03:37:53;;;;;;;;;;;;;;;15.44;71.32;102864.59;5042375;28;19912;-68
2021/09/02 03:40:19;;;;;;;;;;;;;;;15.49;69.66;102868.00;5041902;28;19920;-69
2021/09/02 03:42:44;;;;;;;;;;;;;;;15.49;74.00;102862.72;5042635;28;19909;-69
2021/09/02 03:45:09;;;;;;;;;;;;;;;15.47;75.85;102848.69;5042305;28;19983;-69
2021/09/02 03:47:35;;;;;;;;;;;;;;;15.30;76.16;102850.97;5041810;28;19988;-68
2021/09/02 03:50:00;;;;;;;;;;;;;;;15.37;71.56;102847.22;5042405;28;19913;-68
2021/09/02 03:52:25;;;;;;;;;;;;;;;15.33;73.05;102857.03;5041919;28;19913;-68
2021/09/02 03:54:50;;;;;;;;;;;;;;;15.42;73.30;102858.50;5042227;28;19951;-68
2021/09/02 03:57:15;;;;;;;;;;;;;;;15.48;69.55;102854.81;5041553;28;19920;-68
2021/09/02 03:59:41;;;;;;;;;;;;;;;15.48;69.40;102850.44;5042199;28;19908;-68
2021/09/02 04:02:06;;;;;;;;;;;;;;;15.46;69.94;102844.34;5041981;28;19917;-68
2021/09/02 04:04:31;;;;;;;;;;;;;;;15.58;69.50;102847.53;5041245;28;19967;-69
2021/09/02 04:06:57;;;;;;;;;;;;;;;15.78;69.03;102847.81;5042049;28;19909;-69
2021/09/02 04:09:22;;;;;;;;;;;;;;;15.50;70.00;102848.59;5041410;28;19916;-69
2021/09/02 04:11:47;;;;;;;;;;;;;;;15.52;69.88;102843.28;5042237;28;19921;-69
2021/09/02 04:14:12;;;;;;;;;;;;;;;15.63;68.25;102841.19;5041194;28;19992;-69
2021/09/02 04:16:38;;;;;;;;;;;;;;;15.47;68.94;102847.84;5041658;28;19921;-69
2021/09/02 04:19:03;;;;;;;;;;;;;;;15.45;69.47;102833.81;5041785;28;19913;-69
2021/09/02 04:21:28;;;;;;;;;;;;;;;15.49;69.43;102841.59;5041143;28;19988;-68
2021/09/02 04:23:53;;;;;;;;;;;;;;;15.49;68.44;102843.38;5041974;28;19947;-68
2021/09/02 04:26:19;;;;;;;;;;;;;;;15.46;68.85;102844.34;5038685;28;19921;-68
2021/09/02 04:28:45;;;;;;;;;;;;;;;15.42;69.44;102844.47;5041661;28;19908;-68
2021/09/02 04:31:10;;;;;;;;;;;;;;;15.45;69.07;102847.88;5041456;28;20438;-68
2021/09/02 04:33:35;;;;;;;;;;;;;;;15.43;69.63;102849.69;5041307;28;19905;-68
2021/09/02 04:36:00;;;;;;;;;;;;;;;15.40;69.74;102857.69;5041136;28;19940;-68
2021/09/02 04:38:26;;;;;;;;;;;;;;;15.30;71.75;102856.25;5040950;28;19979;-68
2021/09/02 04:40:51;;;;;;;;;;;;;;;15.38;73.03;102853.38;5041578;28;19920;-68
2021/09/02 04:43:16;;;;;;;;;;;;;;;15.35;73.05;102852.56;5040953;28;19920;-69
2021/09/02 04:45:41;;;;;;;;;;;;;;;15.14;73.54;102854.03;5041428;28;19984;-69
2021/09/02 04:48:13;;;;;;;;;;;;;;;15.06;74.90;102849.88;5041113;28;19921;-69
2021/09/02 04:50:39;;;;;;;;;;;;;;;15.26;73.89;102854.59;5041212;28;19932;-69
2021/09/02 04:53:04;;;;;;;;;;;;;;;15.33;73.13;102856.13;5040970;28;19921;-69
2021/09/02 04:55:29;;;;;;;;;;;;;;;15.31;75.04;102852.69;5036682;28;20213;-69
2021/09/02 04:57:54;;;;;;;;;;;;;;;15.22;72.80;102855.59;5031016;28;20220;-69
2021/09/02 05:00:19;;;;;;;;;;;;;;;15.21;74.46;102856.47;5034266;28;20260;-69
2021/09/02 05:02:45;;;;;;;;;;;;;;;15.29;72.19;102855.38;5032706;28;19979;-68
2021/09/02 05:05:10;;;;;;;;;;;;;;;15.26;74.23;102852.84;5022509;28;19917;-69
2021/09/02 05:07:35;;;;;;;;;;;;;;;15.37;70.31;102849.84;5038673;28;20201;-69
2021/09/02 05:10:04;;;;;;;;;;;;;;;15.06;74.20;102852.50;5041297;28;19917;-69
2021/09/02 05:12:30;;;;;;;;;;;;;;;15.50;69.49;102848.59;5035253;28;19908;-70
2021/09/02 05:14:55;;;;;;;;;;;;;;;15.50;69.36;102850.41;5004027;28;20128;-68
2021/09/02 05:17:20;;;;;;;;;;;;;;;16.66;71.81;102847.59;5034081;28;20256;-68
2021/09/02 05:19:46;;;;;;;;;;;;;;;15.62;65.34;102843.88;5033359;28;20097;-67
2021/09/02 05:22:11;;;;;;;;;;;;;;;15.53;65.62;102840.59;5031091;28;20129;-67
2021/09/02 05:24:36;;;;;;;;;;;;;;;15.58;65.20;102851.00;5038419;28;19912;-67
2021/09/02 05:27:01;;;;;;;;;;;;;;;16.30;69.97;102845.28;5035352;28;19920;-67
2021/09/02 05:29:27;;;;;;;;;;;;;;;15.88;62.57;102853.66;5037082;28;19913;-67
2021/09/02 05:31:52;;;;;;;;;;;;;;;16.66;65.41;102844.94;5032555;28;19995;-68
2021/09/02 05:34:17;;;;;;;;;;;;;;;15.92;60.47;102847.38;5023707;28;19917;-67
2021/09/02 05:36:42;;;;;;;;;;;;;;;15.78;61.41;102853.09;5037223;28;19921;-67
2021/09/02 05:39:08;;;;;;;;;;;;;;;15.74;60.62;102851.47;5037021;28;19917;-68
2021/09/02 05:41:33;;;;;;;;;;;;;;;15.43;66.01;102844.41;5038034;28;19925;-67
2021/09/02 05:43:58;;;;;;;;;;;;;;;15.33;66.81;102846.47;5038585;28;20127;-68
2021/09/02 05:46:24;;;;;;;;;;;;;;;15.47;66.65;102847.84;5037501;28;19921;-68
2021/09/02 05:48:49;;;;;;;;;;;;;;;15.50;67.22;102847.75;5040804;28;19924;-67
2021/09/02 05:51:14;;;;;;;;;;;;;;;15.51;65.92;102841.53;5062294;28;19924;-67
2021/09/02 05:53:39;;;;;;;;;;;;;;;15.48;66.67;102842.50;5055673;28;19917;-67
2021/09/02 05:56:05;;;;;;;;;;;;;;;15.60;66.47;102841.28;5042777;28;20077;-68
2021/09/02 05:58:30;;;;;;;;;;;;;;;15.58;67.30;102840.44;5042227;28;20324;-67
2021/09/02 06:00:55;;;;;;;;;;;;;;;15.62;68.28;102841.22;5042787;28;19905;-67
2021/09/02 06:03:21;;;;;;;;;;;;;;;15.47;68.41;102848.69;5042306;28;19917;-67
2021/09/02 06:05:46;;;;;;;;;;;;;;;15.74;64.20;102846.19;5049165;28;19916;-67
2021/09/02 06:08:11;;;;;;;;;;;;;;;15.90;63.61;102847.44;5058567;28;19932;-68
2021/09/02 06:10:37;;;;;;;;;;;;;;;15.89;64.89;102850.13;5013537;28;20029;-70
2021/09/02 06:13:02;;;;;;;;;;;;;;;15.93;64.34;102847.34;5031606;28;19912;-69
2021/09/02 06:15:27;;;;;;;;;;;;;;;16.14;63.86;102850.22;5037703;28;19917;-68
2021/09/02 06:17:52;;;;;;;;;;;;;;;16.31;63.41;102850.50;5034648;28;20090;-68
2021/09/02 06:20:18;;;;;;;;;;;;;;;16.26;62.97;102851.56;5019066;28;19937;-69
2021/09/02 06:22:43;;;;;;;;;;;;;;;16.24;63.38;102856.91;5037315;28;20297;-69
2021/09/02 06:25:08;;;;;;;;;;;;;;;16.15;63.19;102859.00;5054416;28;20143;-69
2021/09/02 06:27:34;;;;;;;;;;;;;;;16.23;62.59;102857.84;5034479;28;19918;-69
2021/09/02 06:29:59;;;;;;;;;;;;;;;16.26;62.44;102852.47;5032588;28;19920;-69
2021/09/02 06:32:25;;;;;;;;;;;;;;;16.26;63.03;102860.41;5030180;28;19924;-69
2021/09/02 06:34:50;;;;;;;;;;;;;;;16.48;62.90;102852.63;5016688;28;19932;-69
2021/09/02 06:37:15;;;;;;;;;;;;;;;16.53;63.76;102849.78;5037621;28;19919;-69
2021/09/02 06:39:41;;;;;;;;;;;;;;;16.59;63.90;102852.25;5041996;28;19920;-68
2021/09/02 06:42:06;;;;;;;;;;;;;;;16.54;64.13;102859.47;5040232;28;20163;-68
2021/09/02 06:44:31;;;;;;;;;;;;;;;16.60;63.87;102853.09;5036119;28;19921;-69
2021/09/02 06:46:57;;;;;;;;;;;;;;;16.58;63.97;102860.22;5044151;28;19917;-69
2021/09/02 06:49:22;;;;;;;;;;;;;;;16.51;64.79;102864.84;5045969;28;20196;-68
2021/09/02 06:51:47;;;;;;;;;;;;;;;16.59;65.43;102861.94;5035666;28;19925;-68
2021/09/02 06:54:13;;;;;;;;;;;;;;;16.67;64.62;102859.91;5042099;28;19916;-69
2021/09/02 06:56:38;;;;;;;;;;;;;;;17.01;64.43;102867.56;5053195;28;19915;-69
2021/09/02 06:59:03;;;;;;;;;;;;;;;17.48;63.99;102861.44;5052913;28;20155;-70
2021/09/02 07:01:28;;;;;;;;;;;;;;;17.13;63.73;102857.47;5015773;28;19921;-69
2021/09/02 07:03:53;;;;;;;;;;;;;;;16.56;62.96;102862.06;5030268;28;19921;-69
2021/09/02 07:06:19;;;;;;;;;;;;;;;16.26;64.89;102860.41;5033817;28;19952;-70
2021/09/02 07:08:44;;;;;;;;;;;;;;;16.46;65.10;102859.75;5033856;28;20188;-69
2021/09/02 07:11:09;;;;;;;;;;;;;;;16.81;63.88;102859.44;5045218;28;19924;-69
2021/09/02 07:13:34;;;;;;;;;;;;;;;16.87;64.88;102861.91;5030557;28;19959;-69
2021/09/02 07:16:00;;;;;;;;;;;;;;;16.81;64.06;102856.81;5036047;28;19921;-70
2021/09/02 07:18:26;;;;;;;;;;;;;;;16.95;64.13;102849.25;5033886;28;19917;-69
2021/09/02 07:20:51;;;;;;;;;;;;;;;16.98;66.06;102849.16;5041797;28;19913;-69
2021/09/02 07:23:16;;;;;;;;;;;;;;;16.99;66.11;102857.94;5039738;28;19942;-69
2021/09/02 07:25:42;;;;;;;;;;;;;;;16.88;63.39;102858.31;5044762;28;19920;-69
2021/09/02 07:28:07;;;;;;;;;;;;;;;17.06;65.30;102851.50;5044404;28;19959;-69
2021/09/02 07:30:32;;;;;;;;;;;;;;;17.14;63.37;102854.75;5020204;28;19925;-69
2021/09/02 07:32:57;;;;;;;;;;;;;;;16.59;63.48;102861.94;5037093;28;20280;-71
2021/09/02 07:35:23;;;;;;;;;;;;;;;16.78;64.65;102856.91;5031672;28;19927;-70
2021/09/02 07:37:48;;;;;;;;;;;;;;;16.50;65.96;102865.78;5035078;28;19928;-69
2021/09/02 07:40:14;;;;;;;;;;;;;;;16.37;66.97;102869.72;5034362;28;19975;-70
2021/09/02 07:42:39;;;;;;;;;;;;;;;17.14;68.81;102865.34;5036785;28;19913;-69
2021/09/02 07:45:04;;;;;;;;;;;;;;;16.56;67.77;102870.84;5032581;28;20057;-69
2021/09/02 07:47:31;;;;;;;;;;;;;;;16.37;67.88;102877.66;5025670;28;20209;-68
2021/09/02 07:49:56;;;;;;;;;;;;;;;16.29;68.60;102872.63;5016170;28;20167;-68
2021/09/02 07:52:21;;;;;;;;;;;;;;;16.63;67.98;102879.47;5039073;28;19963;-68
2021/09/02 07:54:47;;;;;;;;;;;;;;;16.47;68.02;102879.09;5035498;28;19924;-67
2021/09/02 07:57:12;;;;;;;;;;;;;;;16.50;68.01;102879.88;5024209;28;19921;-68
2021/09/02 07:59:37;;;;;;;;;;;;;;;16.57;67.43;102883.19;5038002;28;19921;-68
2021/09/02 08:02:02;;;;;;;;;;;;;;;16.30;68.01;102882.31;5037396;28;20120;-69
2021/09/02 08:04:28;;;;;;;;;;;;;;;16.30;68.91;102877.03;5037359;28;19917;-68
2021/09/02 08:06:53;;;;;;;;;;;;;;;16.47;68.20;102884.41;5038718;28;20002;-68
2021/09/02 08:09:18;;;;;;;;;;;;;;;16.42;68.25;102883.69;5034045;28;19913;-70
2021/09/02 08:11:44;;;;;;;;;;;;;;;16.27;69.08;102887.69;5039148;28;20176;-68
2021/09/02 08:14:09;;;;;;;;;;;;;;;16.13;69.30;102888.13;5041329;28;19921;-68
2021/09/02 08:16:34;;;;;;;;;;;;;;;16.35;69.11;102887.44;5040715;28;19994;-68
2021/09/02 08:18:59;;;;;;;;;;;;;;;16.18;69.24;102886.19;5041293;28;19913;-68
2021/09/02 08:21:25;;;;;;;;;;;;;;;16.61;68.57;102881.31;5036824;28;20814;-70
2021/09/02 08:23:51;;;;;;;;;;;;;;;16.60;68.39;102879.56;5040365;28;19917;-69
2021/09/02 08:26:16;;;;;;;;;;;;;;;16.94;66.78;102883.75;5036951;28;19920;-68
2021/09/02 08:28:41;;;;;;;;;;;;;;;17.01;66.56;102877.31;5037963;28;19980;-67
2021/09/02 08:31:06;;;;;;;;;;;;;;;16.99;66.29;102882.66;5032626;28;20255;-67
2021/09/02 08:33:31;;;;;;;;;;;;;;;16.99;65.31;102879.13;5037649;28;20004;-68
2021/09/02 08:35:57;;;;;;;;;;;;;;;16.81;63.75;102877.97;5035080;28;19920;-69
2021/09/02 08:38:22;;;;;;;;;;;;;;;16.63;65.56;102882.97;5042023;28;19917;-69
2021/09/02 08:40:47;;;;;;;;;;;;;;;16.54;64.55;102891.22;5040365;28;20287;-70
2021/09/02 08:43:13;;;;;;;;;;;;;;;16.91;64.49;102884.69;5034062;28;19921;-69
2021/09/02 08:45:38;;;;;;;;;;;;;;;16.64;63.68;102886.47;5034859;28;19920;-69
2021/09/02 08:48:03;;;;;;;;;;;;;;;16.87;62.62;102885.72;5033614;28;19924;-68
2021/09/02 08:50:30;;;;;;;;;;;;;;;16.68;63.50;102882.78;4997575;28;19921;-68
2021/09/02 08:52:55;;;;;;;;;;;;;;;16.82;64.18;102884.97;5026799;28;19913;-69
2021/09/02 08:55:21;;;;;;;;;;;;;;;17.03;63.56;102888.69;5041814;28;19917;-69
2021/09/02 08:57:49;;;;;;;;;;;;;;;17.05;59.39;102892.16;5026367;28;20133;-70
2021/09/02 09:00:15;;;;;;;;;;;;;;;16.98;59.03;102895.94;5027347;28;20249;-68
2021/09/02 09:02:46;;;;;;;;;;;;;;;16.98;59.16;102888.84;5029052;28;19944;-69
2021/09/02 09:05:13;;;;;;;;;;;;;;;16.98;60.04;102894.16;5037161;28;19928;-69
2021/09/02 09:07:39;;;;;;;;;;;;;;;17.47;59.07;102891.50;5034729;28;19988;-68
2021/09/02 09:10:14;;;;;;;;;;;;;;;17.45;58.54;102896.88;5041092;28;20306;-68
2021/09/02 09:12:47;;;;;;;;;;;;;;;17.19;58.98;102895.19;5032299;28;20180;-70
2021/09/02 09:15:19;;;;;;;;;;;;;;;17.19;58.21;102897.81;5038146;28;20465;-70
2021/09/02 09:17:45;;;;;;;;;;;;;;;17.61;57.73;102901.59;5036117;28;20004;-69
2021/09/02 09:20:10;;;;;;;;;;;;;;;17.20;57.15;102893.38;5042465;28;20189;-69
2021/09/02 09:22:36;;;;;;;;;;;;;;;17.26;58.27;102888.75;5042610;28;20128;-69
2021/09/02 09:25:05;;;;;;;;;;;;;;;17.05;58.06;102894.81;5042154;28;19916;-70
2021/09/02 09:27:37;;;;;;;;;;;;;;;17.25;57.00;102894.09;5022540;28;19918;-69
2021/09/02 09:30:03;;;;;;;;;;;;;;;17.21;57.25;102888.03;5039818;28;19905;-69
2021/09/02 09:32:31;;;;;;;;;;;;;;;17.23;57.25;102901.22;5042303;28;19909;-70
2021/09/02 09:34:56;;;;;;;;;;;;;;;17.16;57.59;102895.28;5027594;28;19913;-70
2021/09/02 09:37:21;;;;;;;;;;;;;;;17.38;56.62;102894.50;5021970;28;19927;-70
2021/09/02 09:39:48;;;;;;;;;;;;;;;17.39;57.14;102890.91;5048648;28;20255;-70
2021/09/02 09:42:15;;;;;;;;;;;;;;;17.12;57.64;102900.72;5036045;28;19924;-70
2021/09/02 09:44:41;;;;;;;;;;;;;;;17.18;57.52;102885.50;5023422;28;20204;-69
2021/09/02 09:47:07;;;;;;;;;;;;;;;17.62;56.74;102887.41;5038195;28;19928;-70
2021/09/02 09:49:42;;;;;;;;;;;;;;;17.56;57.36;102885.00;5041265;28;20085;-72
2021/09/02 09:52:20;;;;;;;;;;;;;;;17.35;57.50;102876.91;5035673;28;19920;-71
2021/09/02 09:54:46;;;;;;;;;;;;;;;17.59;57.69;102884.88;5037765;28;19940;-70
2021/09/02 09:57:11;;;;;;;;;;;;;;;17.51;57.99;102882.53;5043002;28;19917;-70
2021/09/02 09:59:37;;;;;;;;;;;;;;;18.18;56.51;102881.72;5042618;28;19924;-70
2021/09/02 10:02:02;;;;;;;;;;;;;;;17.92;55.84;102882.75;5039709;28;19917;-70
2021/09/02 10:04:28;;;;;;;;;;;;;;;18.16;56.09;102880.91;5037436;28;19992;-72
2021/09/02 10:06:54;;;;;;;;;;;;;;;17.96;56.30;102880.84;5039585;28;19940;-70
2021/09/02 10:09:19;;;;;;;;;;;;;;;17.68;56.28;102871.28;5036782;28;20089;-68
2021/09/02 10:11:44;;;;;;;;;;;;;;;17.69;56.60;102874.81;5041938;28;19921;-68
2021/09/02 10:14:09;;;;;;;;;;;;;;;17.83;57.88;102873.34;5032664;28;19920;-67
2021/09/02 10:16:35;;;;;;;;;;;;;;;17.49;57.89;102868.47;5036647;28;19920;-67
2021/09/02 10:19:00;;;;;;;;;;;;;;;18.07;56.81;102867.19;5040092;28;19916;-67
2021/09/02 10:21:25;;;;;;;;;;;;;;;17.67;56.96;102869.56;5033593;28;20003;-67
2021/09/02 10:23:50;;;;;;;;;;;;;;;17.90;57.10;102867.81;5037184;28;20092;-67
2021/09/02 10:26:34;;;;;;;;;;;;;;;17.59;56.73;102872.50;5040185;28;20093;-67
2021/09/02 10:28:59;;;;;;;;;;;;;;;18.27;54.91;102866.38;5041686;28;19923;-67
2021/09/02 10:31:24;;;;;;;;;;;;;;;18.53;54.69;102866.13;5040620;28;19984;-67
2021/09/02 10:33:50;;;;;;;;;;;;;;;19.12;53.72;102858.34;5041136;28;19947;-67
2021/09/02 10:36:15;;;;;;;;;;;;;;;18.98;53.82;102854.47;5040535;28;19963;-67
2021/09/02 10:38:42;;;;;;;;;;;;;;;18.27;54.24;102863.72;5041447;28;19933;-67
2021/09/02 10:41:07;;;;;;;;;;;;;;;17.89;55.57;102861.66;5040955;28;19915;-67
2021/09/02 10:43:49;;;;;;;;;;;;;;;17.70;55.04;102856.22;5040332;28;20212;-68
2021/09/02 10:46:34;;;;;;;;;;;;;;;18.61;55.00;102853.41;5035608;28;20136;-67
2021/09/02 10:49:11;;;;;;;;;;;;;;;18.30;54.32;102859.16;5042242;28;19913;-67
2021/09/02 10:51:37;;;;;;;;;;;;;;;18.77;53.26;102858.03;5042282;28;19924;-67
2021/09/02 10:54:09;;;;;;;;;;;;;;;18.65;53.75;102859.44;5042650;28;20150;-67
2021/09/02 10:56:53;;;;;;;;;;;;;;;17.83;55.52;102854.78;5037317;28;19913;-67
2021/09/02 10:59:44;;;;;;;;;;;;;;;18.45;55.11;102851.47;5033276;28;19913;-67
2021/09/02 11:02:10;;;;;;;;;;;;;;;18.37;55.53;102857.97;5040058;28;19909;-66
2021/09/02 11:04:36;;;;;;;;;;;;;;;18.96;53.77;102858.16;5041953;28;19912;-67
2021/09/02 11:07:02;;;;;;;;;;;;;;;19.84;52.36;102857.66;5042105;28;19905;-67
2021/09/02 11:09:30;;;;;;;;;;;;;;;19.51;52.15;102857.44;5041758;28;19909;-67
2021/09/02 11:11:56;;;;;;;;;;;;;;;19.14;51.77;102851.16;5041638;28;19999;-67
2021/09/02 11:14:21;;;;;;;;;;;;;;;18.70;52.44;102845.97;5041635;28;19908;-67
2021/09/02 11:16:47;;;;;;;;;;;;;;;18.85;53.06;102849.81;5037121;28;20224;-67
2021/09/02 11:19:12;;;;;;;;;;;;;;;18.90;51.90;102835.38;5041828;28;19932;-67
2021/09/02 11:21:37;;;;;;;;;;;;;;;19.07;52.27;102842.59;5042639;28;19912;-67
2021/09/02 11:24:05;;;;;;;;;;;;;;;18.41;53.39;102848.09;5042404;28;19920;-67
2021/09/02 11:26:31;;;;;;;;;;;;;;;19.55;51.54;102843.06;5038948;28;19920;-67
2021/09/02 11:28:56;;;;;;;;;;;;;;;19.31;52.86;102842.41;5038089;28;19909;-67
2021/09/02 11:31:21;;;;;;;;;;;;;;;18.40;53.79;102854.31;5043815;28;20283;-67
2021/09/02 11:33:47;;;;;;;;;;;;;;;18.56;53.27;102836.81;5051812;28;20123;-67
2021/09/02 11:36:12;;;;;;;;;;;;;;;18.42;54.01;102836.53;5050697;28;19904;-67
2021/09/02 11:38:37;;;;;;;;;;;;;;;17.97;54.28;102830.44;5049313;28;19911;-67
2021/09/02 11:41:09;;;;;;;;;;;;;;;18.95;52.91;102828.06;5048327;28;19913;-67
2021/09/02 11:43:40;;;;;;;;;;;;;;;20.35;51.11;102835.69;5052554;28;19905;-67
2021/09/02 11:46:06;;;;;;;;;;;;;;;19.92;50.39;102823.59;5050378;28;19989;-67
2021/09/02 11:48:43;;;;;;;;;;;;;;;19.85;52.76;102823.97;5046656;28;19925;-67
2021/09/02 11:51:08;;;;;;;;;;;;;;;19.73;51.21;102820.94;5039730;28;19908;-68
2021/09/02 11:53:33;;;;;;;;;;;;;;;20.48;51.02;102805.72;5041441;28;19996;-67
2021/09/02 11:56:25;;;;;;;;;;;;;;;19.03;54.74;102816.22;5039575;28;20108;-68
2021/09/02 11:58:57;;;;;;;;;;;;;;;18.52;54.15;102814.00;5052370;28;19911;-68
2021/09/02 12:01:22;;;;;;;;;;;;;;;19.27;53.27;102811.63;5051329;28;19909;-68
2021/09/02 12:03:51;;;;;;;;;;;;;;;19.38;52.52;102814.63;5041811;28;19917;-68
2021/09/02 12:06:21;;;;;;;;;;;;;;;19.92;52.71;102814.75;5040438;28;19979;-68
2021/09/02 12:08:46;;;;;;;;;;;;;;;19.52;52.10;102806.03;5041521;28;19905;-67
2021/09/02 12:11:12;;;;;;;;;;;;;;;19.01;53.83;102803.06;5041095;28;20140;-68
2021/09/02 12:13:37;;;;;;;;;;;;;;;19.24;53.75;102801.97;5040163;28;20082;-67
2021/09/02 12:16:03;;;;;;;;;;;;;;;19.10;54.99;102797.31;5039758;28;20212;-68
2021/09/02 12:18:29;;;;;;;;;;;;;;;20.78;50.84;102785.59;5040666;28;19972;-67
2021/09/02 12:20:54;;;;;;;;;;;;;;;20.92;50.88;102788.38;5044251;28;19964;-67
2021/09/02 12:23:23;;;;;;;;;;;;;;;20.16;52.32;102799.38;5039488;28;19928;-67
2021/09/02 12:25:57;;;;;;;;;;;;;;;19.99;53.51;102794.03;5039529;28;19920;-69
2021/09/02 12:28:29;;;;;;;;;;;;;;;19.80;52.51;102802.91;5038672;28;19979;-68
2021/09/02 12:30:54;;;;;;;;;;;;;;;19.26;54.53;102794.78;5041036;28;19917;-68
2021/09/02 12:33:20;;;;;;;;;;;;;;;19.64;53.48;102796.59;5023446;28;19931;-68